Philadelphia, Pennsylvania
Current Conditions -  °F | °C
As of 5:54 PM on Thursday 27 Nov 2014 (Local Time) from KPHL Reporting Station
Scattered Clouds Scattered Clouds  
Wind Chill: 33°   Ceiling: Unl
Heat Index: 38°   Visibility: 10mi
Dew Point: 27°   Wind: 7mph
Humidity: 65%   Direction: 300°WNW
Pressure: 30.08"   Gusts: NA
Location:  39.95°N, 75.16°W
Report Text: KPHL 272254Z 30006KT 10SM SCT065 03/M03 A3008 RMK AO2 SLP184 T00331028 $
Loading
Personal Weather Stations






























Interactive Weather Map New forecast layout! Learn more

10-Day Weather Forecast

Advertisements
Track Severe Weather on mobile